createdAt,value
2023-09-02T00:02:19.092Z,4.90
2023-09-02T00:10:27.024Z,4.32
2023-09-02T00:18:32.851Z,4.40
2023-09-02T00:26:40.880Z,4.13
2023-09-02T00:34:46.954Z,4.00
2023-09-02T00:42:56.174Z,4.55
2023-09-02T00:51:03.808Z,4.82
2023-09-02T00:59:11.952Z,4.72
2023-09-02T01:07:17.769Z,5.03
2023-09-02T01:15:26.041Z,4.72
2023-09-02T01:23:57.129Z,4.80
2023-09-02T01:32:05.783Z,4.40
2023-09-02T01:40:15.266Z,5.28
2023-09-02T01:48:24.993Z,5.07
2023-09-02T01:56:31.602Z,4.68
2023-09-02T02:04:46.231Z,4.22
2023-09-02T02:12:54.582Z,4.70
2023-09-02T02:21:04.769Z,4.40
2023-09-02T02:29:12.714Z,4.10
2023-09-02T02:37:18.136Z,4.55
2023-09-02T02:45:26.226Z,4.53
2023-09-02T02:53:31.496Z,4.20
2023-09-02T03:01:43.714Z,4.45
2023-09-02T03:09:49.753Z,5.22
2023-09-02T03:17:58.025Z,4.95
2023-09-02T03:26:12.818Z,4.97
2023-09-02T03:34:23.574Z,4.82
2023-09-02T03:42:28.941Z,4.40
2023-09-02T03:50:37.040Z,4.53
2023-09-02T03:58:43.088Z,4.90
2023-09-02T04:06:51.718Z,4.63
2023-09-02T04:14:57.211Z,4.35
2023-09-02T04:23:05.292Z,3.85
2023-09-02T04:31:10.908Z,3.90
2023-09-02T04:39:18.861Z,3.88
2023-09-02T04:47:26.116Z,4.40
2023-09-02T04:55:35.093Z,3.55
2023-09-02T05:03:41.649Z,4.18
2023-09-02T05:11:49.712Z,3.85
2023-09-02T05:19:55.211Z,3.67
2023-09-02T05:28:03.210Z,3.92
2023-09-02T05:36:09.034Z,3.88
2023-09-02T05:44:17.163Z,4.25
2023-09-02T05:52:22.636Z,3.78
2023-09-02T06:00:30.633Z,3.30
2023-09-02T06:08:36.555Z,3.20
2023-09-02T06:16:44.408Z,3.33
2023-09-02T06:24:49.735Z,2.92
2023-09-02T06:32:58.039Z,3.33
2023-09-02T06:41:03.438Z,3.25
2023-09-02T06:49:11.785Z,3.35
2023-09-02T06:57:17.126Z,3.72
2023-09-02T07:05:25.133Z,3.80
2023-09-02T07:13:30.672Z,4.28
2023-09-02T07:21:38.590Z,3.35
2023-09-02T07:29:43.984Z,2.95
2023-09-02T07:37:52.025Z,3.70
2023-09-02T07:46:00.083Z,3.00
2023-09-02T07:54:08.262Z,2.90
2023-09-02T08:02:13.627Z,3.58
2023-09-02T08:10:21.840Z,3.30
2023-09-02T08:18:27.288Z,3.28
2023-09-02T08:26:35.315Z,2.70
2023-09-02T08:34:40.625Z,3.10
2023-09-02T08:42:50.854Z,3.38
2023-09-02T08:50:57.893Z,3.25
2023-09-02T08:59:05.879Z,3.10
2023-09-02T09:07:13.864Z,2.72
2023-09-02T09:15:22.973Z,2.35
2023-09-02T09:23:28.233Z,2.53
2023-09-02T09:31:36.089Z,3.60
2023-09-02T09:39:45.940Z,3.80
2023-09-02T09:47:54.028Z,2.60
2023-09-02T10:05:18.613Z,2.22
2023-09-02T10:14:00.569Z,3.10
2023-09-02T10:22:22.711Z,2.75
2023-09-02T10:30:36.036Z,2.30
2023-09-02T10:38:51.509Z,2.30
2023-09-02T12:22:29.789Z,2.10
2023-09-02T12:30:35.226Z,2.63
2023-09-02T12:38:56.051Z,2.10
2023-09-02T12:47:01.402Z,1.85
2023-09-02T12:55:14.957Z,2.30
2023-09-02T13:03:20.573Z,3.00
2023-09-02T13:11:30.535Z,2.35
2023-09-02T13:19:36.572Z,2.85
2023-09-02T13:27:44.842Z,2.15
2023-09-02T13:35:50.254Z,2.45
2023-09-02T13:43:58.205Z,2.70
2023-09-02T13:52:03.880Z,2.10
2023-09-02T14:00:25.165Z,4.40
2023-09-02T14:08:39.094Z,2.88
2023-09-02T14:16:47.137Z,2.25
2023-09-02T14:24:53.995Z,2.55
2023-09-02T14:33:02.027Z,2.70
2023-09-02T14:41:07.411Z,2.20
2023-09-02T14:49:16.288Z,2.53
2023-09-02T14:57:22.130Z,2.40
2023-09-02T15:05:31.595Z,2.92
2023-09-02T15:13:40.543Z,2.42
2023-09-02T15:21:48.456Z,3.00
2023-09-02T15:29:54.464Z,4.00
2023-09-02T15:38:04.342Z,4.70
2023-09-02T15:46:10.392Z,3.40
2023-09-02T15:54:18.484Z,4.30
2023-09-02T16:02:23.939Z,3.25
2023-09-02T16:10:34.137Z,4.03
2023-09-02T16:18:39.551Z,3.35
2023-09-02T16:26:47.620Z,2.80
2023-09-02T16:34:53.121Z,3.47
2023-09-02T16:43:02.517Z,6.20
2023-09-02T16:51:08.012Z,6.30
2023-09-02T16:59:16.527Z,5.80
2023-09-02T17:07:21.968Z,6.00
2023-09-02T17:15:38.469Z,7.45
2023-09-02T17:23:47.874Z,6.60
2023-09-02T17:31:58.397Z,7.15
2023-09-02T17:40:04.237Z,8.63
2023-09-02T17:48:14.325Z,6.00
2023-09-02T17:56:19.851Z,6.72
2023-09-02T18:04:27.876Z,6.90
2023-09-02T18:12:33.207Z,7.43
2023-09-02T18:20:41.189Z,5.75
2023-09-02T18:28:46.868Z,6.10
2023-09-02T18:36:54.900Z,8.63
2023-09-02T18:45:00.369Z,10.55
2023-09-02T18:53:08.414Z,8.60
2023-09-02T19:01:14.126Z,8.57
2023-09-02T19:09:22.116Z,9.32
2023-09-02T19:17:27.771Z,7.78
2023-09-02T19:25:40.439Z,5.53
2023-09-02T19:33:46.252Z,5.40
2023-09-02T19:41:56.623Z,5.50
2023-09-02T19:50:01.993Z,6.38
2023-09-02T19:58:10.185Z,7.30
2023-09-02T20:06:16.615Z,7.22
2023-09-02T20:14:24.540Z,7.55
2023-09-02T20:22:29.955Z,8.98
2023-09-02T20:30:41.128Z,7.90
2023-09-02T20:38:47.022Z,7.40
2023-09-02T20:46:55.105Z,7.43
2023-09-02T20:55:01.053Z,7.47
2023-09-02T21:03:09.289Z,6.60
2023-09-02T21:11:15.900Z,6.30
2023-09-02T21:19:23.840Z,6.60
2023-09-02T21:27:29.054Z,6.97
2023-09-02T21:35:40.994Z,6.88
2023-09-02T21:43:46.984Z,7.50
2023-09-02T21:51:54.996Z,6.30
2023-09-02T22:00:00.507Z,6.10
2023-09-02T22:08:09.793Z,5.45
2023-09-02T22:16:15.252Z,5.97
2023-09-02T22:24:23.213Z,5.22
2023-09-02T22:32:28.575Z,5.72
2023-09-02T22:40:36.869Z,5.22
2023-09-02T22:48:42.256Z,6.43
2023-09-02T22:56:51.054Z,5.60
2023-09-02T23:04:56.481Z,6.90
2023-09-02T23:13:04.963Z,5.57
2023-09-02T23:21:14.519Z,5.80
2023-09-02T23:29:22.609Z,5.78
2023-09-02T23:37:27.966Z,7.90
2023-09-02T23:45:38.616Z,5.53
2023-09-02T23:53:43.864Z,5.53
